createdAt,value
2018-07-27T00:02:22.179Z,21.40
2018-07-27T00:04:50.406Z,21.30
2018-07-27T00:07:18.668Z,21.30
2018-07-27T00:09:46.941Z,21.20
2018-07-27T00:12:15.590Z,21.10
2018-07-27T00:14:44.349Z,21.10
2018-07-27T00:17:12.582Z,21.10
2018-07-27T00:19:40.847Z,21.20
2018-07-27T00:22:09.109Z,21.20
2018-07-27T00:24:37.365Z,21.20
2018-07-27T00:27:05.629Z,21.20
2018-07-27T00:29:34.175Z,21.30
2018-07-27T00:32:02.473Z,21.30
2018-07-27T00:34:30.757Z,21.30
2018-07-27T00:36:59.017Z,21.30
2018-07-27T00:39:27.249Z,21.20
2018-07-27T00:41:55.563Z,21.20
2018-07-27T00:44:24.091Z,21.10
2018-07-27T00:46:52.376Z,21.00
2018-07-27T00:49:20.689Z,21.00
2018-07-27T00:51:49.157Z,20.90
2018-07-27T00:54:17.407Z,21.00
2018-07-27T00:56:45.650Z,20.90
2018-07-27T00:59:13.881Z,20.80
2018-07-27T01:01:42.337Z,20.80
2018-07-27T01:04:10.608Z,20.80
2018-07-27T01:06:38.900Z,20.80
2018-07-27T01:09:08.872Z,20.80
2018-07-27T01:11:37.129Z,20.80
2018-07-27T01:14:05.629Z,20.80
2018-07-27T01:16:33.954Z,20.70
2018-07-27T01:19:02.238Z,20.70
2018-07-27T01:21:30.562Z,20.70
2018-07-27T01:23:58.844Z,20.70
2018-07-27T01:26:27.077Z,20.70
2018-07-27T01:28:55.369Z,20.70
2018-07-27T01:31:23.589Z,20.70
2018-07-27T01:33:51.897Z,20.70
2018-07-27T01:36:20.141Z,20.70
2018-07-27T01:38:48.440Z,20.80
2018-07-27T01:41:16.671Z,20.90
2018-07-27T01:43:44.917Z,20.90
2018-07-27T01:46:13.155Z,20.90
2018-07-27T01:48:41.393Z,20.90
2018-07-27T01:51:09.680Z,20.80
2018-07-27T01:53:37.926Z,20.70
2018-07-27T01:56:06.129Z,20.60
2018-07-27T01:58:34.495Z,20.50
2018-07-27T02:01:02.731Z,20.40
2018-07-27T02:03:30.959Z,20.30
2018-07-27T02:05:59.287Z,20.10
2018-07-27T02:08:27.438Z,20.00
2018-07-27T02:10:55.668Z,19.90
2018-07-27T02:13:24.411Z,19.90
2018-07-27T02:15:52.965Z,19.90
2018-07-27T02:18:21.230Z,19.90
2018-07-27T02:20:49.585Z,19.80
2018-07-27T02:23:17.801Z,19.70
2018-07-27T02:25:46.126Z,19.60
2018-07-27T02:28:17.369Z,19.60
2018-07-27T02:30:45.641Z,19.60
2018-07-27T02:33:13.876Z,19.50
2018-07-27T02:35:42.052Z,19.40
2018-07-27T02:38:10.370Z,19.20
2018-07-27T02:40:38.773Z,19.10
2018-07-27T02:43:07.113Z,18.90
2018-07-27T02:45:35.328Z,18.70
2018-07-27T02:48:03.906Z,18.50
2018-07-27T02:50:32.161Z,18.40
2018-07-27T02:53:00.360Z,18.20
2018-07-27T02:55:28.610Z,18.10
2018-07-27T02:57:56.889Z,18.00
2018-07-27T03:00:25.097Z,17.90
2018-07-27T03:02:53.297Z,17.80
2018-07-27T03:05:21.515Z,17.80
2018-07-27T03:07:49.750Z,17.70
2018-07-27T03:10:17.974Z,17.70
2018-07-27T03:12:46.269Z,17.70
2018-07-27T03:15:14.540Z,17.70
2018-07-27T03:17:42.783Z,17.70
2018-07-27T03:20:11.550Z,17.70
2018-07-27T03:22:39.848Z,17.70
2018-07-27T03:25:09.251Z,17.70
2018-07-27T03:27:37.455Z,17.80
2018-07-27T03:30:06.438Z,17.80
2018-07-27T03:32:34.639Z,17.90
2018-07-27T03:35:02.888Z,18.00
2018-07-27T03:37:31.108Z,18.00
2018-07-27T03:39:59.609Z,18.00
2018-07-27T03:42:28.127Z,17.90
2018-07-27T03:44:56.366Z,17.90
2018-07-27T03:47:24.594Z,17.90
2018-07-27T03:49:53.541Z,17.90
2018-07-27T03:52:22.217Z,17.90
2018-07-27T03:54:50.443Z,17.90
2018-07-27T03:57:18.636Z,17.90
2018-07-27T03:59:47.134Z,18.00
2018-07-27T04:02:15.428Z,18.00
2018-07-27T04:04:43.889Z,18.10
2018-07-27T04:07:12.169Z,18.20
2018-07-27T04:09:40.424Z,18.20
2018-07-27T04:12:10.543Z,18.30
2018-07-27T04:14:38.744Z,18.40
2018-07-27T04:17:07.028Z,18.40
2018-07-27T04:19:35.220Z,18.50
2018-07-27T04:22:03.525Z,18.50
2018-07-27T04:24:31.869Z,18.50
2018-07-27T04:27:00.092Z,18.60
2018-07-27T04:29:28.293Z,18.60
2018-07-27T04:31:56.802Z,18.70
2018-07-27T04:34:25.045Z,18.70
2018-07-27T04:36:54.264Z,18.90
2018-07-27T04:39:22.508Z,19.00
2018-07-27T04:41:50.755Z,19.10
2018-07-27T04:44:18.965Z,19.20
2018-07-27T04:46:47.233Z,19.30
2018-07-27T04:49:15.440Z,19.90
2018-07-27T04:51:43.701Z,20.90
2018-07-27T04:54:12.594Z,21.90
2018-07-27T04:56:42.320Z,22.80
2018-07-27T04:59:11.235Z,23.70
2018-07-27T05:01:39.698Z,24.30
2018-07-27T05:04:07.864Z,24.80
2018-07-27T05:06:36.134Z,25.10
2018-07-27T05:09:12.238Z,25.40
2018-07-27T05:11:40.787Z,25.80
2018-07-27T05:14:08.933Z,26.30
2018-07-27T05:16:37.149Z,26.70
2018-07-27T05:19:05.747Z,27.00
2018-07-27T05:21:34.930Z,27.30
2018-07-27T05:24:03.141Z,27.50
2018-07-27T05:26:31.620Z,27.90
2018-07-27T05:28:59.853Z,28.20
2018-07-27T05:31:28.081Z,28.40
2018-07-27T05:33:56.271Z,28.30
2018-07-27T05:36:24.473Z,28.50
2018-07-27T05:38:53.340Z,28.70
2018-07-27T05:41:21.596Z,28.80
2018-07-27T05:43:49.827Z,29.10
2018-07-27T05:46:18.740Z,29.30
2018-07-27T05:48:47.341Z,29.70
2018-07-27T05:51:16.210Z,29.80
2018-07-27T05:53:44.398Z,30.10
2018-07-27T05:58:40.543Z,30.60
2018-07-27T06:01:09.042Z,30.80
2018-07-27T06:03:37.209Z,30.90
2018-07-27T06:06:05.673Z,31.10
2018-07-27T06:08:34.196Z,31.40
2018-07-27T06:11:02.394Z,31.30
2018-07-27T06:13:30.633Z,31.10
2018-07-27T06:15:59.652Z,31.00
2018-07-27T06:18:27.990Z,31.00
2018-07-27T06:20:56.250Z,31.30
2018-07-27T06:23:24.469Z,31.10
2018-07-27T06:25:52.673Z,31.00
2018-07-27T06:28:20.911Z,31.10
2018-07-27T06:30:49.177Z,31.30
2018-07-27T06:33:17.449Z,31.60
2018-07-27T06:35:45.938Z,31.60
2018-07-27T06:38:14.126Z,31.50
2018-07-27T06:40:42.329Z,31.60
2018-07-27T06:43:10.509Z,31.90
2018-07-27T06:45:38.791Z,31.50
2018-07-27T06:48:09.161Z,31.10
2018-07-27T06:50:37.380Z,31.30
2018-07-27T06:53:05.616Z,31.70
2018-07-27T06:55:33.879Z,32.20
2018-07-27T06:58:02.058Z,32.80
2018-07-27T07:00:30.334Z,32.70
2018-07-27T07:02:59.261Z,32.80
2018-07-27T07:05:27.874Z,33.20
2018-07-27T07:07:56.059Z,33.00
2018-07-27T07:10:24.299Z,32.70
2018-07-27T07:12:52.525Z,32.60
2018-07-27T07:15:21.735Z,32.40
2018-07-27T07:17:49.962Z,32.40
2018-07-27T07:20:18.201Z,31.80
2018-07-27T07:22:46.439Z,31.90
2018-07-27T07:25:15.627Z,31.90
2018-07-27T07:27:43.827Z,31.70
2018-07-27T07:30:12.005Z,31.70
2018-07-27T07:32:40.192Z,32.20
2018-07-27T07:35:08.744Z,33.00
2018-07-27T07:37:36.955Z,33.30
2018-07-27T07:40:06.146Z,33.30
2018-07-27T07:42:35.129Z,32.90
2018-07-27T07:45:04.080Z,32.70
2018-07-27T07:47:32.304Z,33.10
2018-07-27T07:50:01.486Z,33.30
2018-07-27T07:52:29.752Z,33.30
2018-07-27T07:54:57.981Z,33.10
2018-07-27T07:57:26.241Z,33.10
2018-07-27T07:59:54.480Z,33.40
2018-07-27T08:04:50.665Z,34.00
2018-07-27T08:07:18.877Z,34.20
2018-07-27T08:09:47.100Z,34.50
2018-07-27T08:12:15.289Z,34.70
2018-07-27T08:14:43.536Z,34.70
2018-07-27T08:17:11.862Z,34.50
2018-07-27T08:19:40.036Z,34.60
2018-07-27T08:22:08.309Z,34.40
2018-07-27T08:24:36.525Z,33.80
2018-07-27T08:27:06.180Z,34.10
2018-07-27T08:29:35.757Z,34.00
2018-07-27T08:32:04.312Z,34.60
2018-07-27T08:34:32.529Z,34.80
2018-07-27T08:37:01.721Z,34.70
2018-07-27T08:39:31.206Z,34.60
2018-07-27T08:41:59.457Z,34.60
2018-07-27T08:44:30.828Z,34.70
2018-07-27T08:46:59.314Z,34.40
2018-07-27T08:49:27.538Z,34.60
2018-07-27T08:51:55.732Z,35.20
2018-07-27T08:54:23.957Z,35.50
2018-07-27T08:56:52.196Z,36.00
2018-07-27T08:59:20.470Z,35.90
2018-07-27T09:01:48.681Z,36.10
2018-07-27T09:04:16.907Z,36.40
2018-07-27T09:06:45.151Z,35.80
2018-07-27T09:09:14.520Z,35.70
2018-07-27T09:14:10.785Z,36.50
2018-07-27T09:16:39.001Z,36.50
2018-07-27T09:19:07.205Z,36.70
2018-07-27T09:21:35.509Z,36.80
2018-07-27T09:24:03.772Z,36.50
2018-07-27T09:26:31.996Z,36.80
2018-07-27T09:29:00.226Z,37.00
2018-07-27T09:31:28.503Z,37.50
2018-07-27T09:33:56.754Z,37.30
2018-07-27T09:36:25.284Z,36.50
2018-07-27T09:38:53.541Z,36.20
2018-07-27T09:41:21.781Z,36.10
2018-07-27T09:43:50.030Z,36.60
2018-07-27T09:46:18.226Z,37.10
2018-07-27T09:48:51.760Z,37.10
2018-07-27T09:51:20.855Z,37.20
2018-07-27T09:53:49.153Z,36.50
2018-07-27T09:56:17.433Z,36.00
2018-07-27T09:58:45.935Z,35.50
2018-07-27T10:01:19.492Z,35.30
2018-07-27T10:06:15.681Z,34.40
2018-07-27T10:08:43.884Z,34.60
2018-07-27T10:11:12.092Z,34.50
2018-07-27T10:13:40.661Z,34.70
2018-07-27T10:16:09.129Z,35.20
2018-07-27T10:18:37.383Z,36.10
2018-07-27T10:21:05.806Z,36.30
2018-07-27T10:26:02.590Z,36.40
2018-07-27T10:28:31.341Z,36.60
2018-07-27T10:30:59.593Z,36.60
2018-07-27T10:33:27.844Z,36.80
2018-07-27T10:35:56.072Z,36.60
2018-07-27T10:38:24.568Z,37.00
2018-07-27T10:40:52.785Z,36.60
2018-07-27T10:43:20.994Z,36.60
2018-07-27T10:45:49.249Z,36.40
2018-07-27T10:48:17.469Z,36.30
2018-07-27T10:50:45.682Z,36.60
2018-07-27T10:53:14.010Z,36.50
2018-07-27T10:55:42.234Z,36.60
2018-07-27T10:58:10.496Z,36.70
2018-07-27T11:00:38.943Z,36.80
2018-07-27T11:03:07.196Z,36.60
2018-07-27T11:05:35.399Z,36.70
2018-07-27T11:08:03.603Z,36.70
2018-07-27T11:10:31.828Z,36.40
2018-07-27T11:13:00.056Z,36.10
2018-07-27T11:15:28.292Z,36.00
2018-07-27T11:17:56.542Z,36.50
2018-07-27T11:20:24.765Z,36.50
2018-07-27T11:22:52.997Z,37.00
2018-07-27T11:25:27.083Z,36.80
2018-07-27T11:27:55.247Z,37.50
2018-07-27T11:30:23.453Z,37.90
2018-07-27T11:32:51.688Z,37.80
2018-07-27T11:35:19.904Z,37.50
2018-07-27T11:37:48.842Z,37.20
2018-07-27T11:40:17.062Z,37.00
2018-07-27T11:42:45.332Z,37.20
2018-07-27T11:45:14.097Z,37.20
2018-07-27T11:47:42.325Z,37.60
2018-07-27T11:50:10.566Z,37.60
2018-07-27T11:52:38.792Z,37.00
2018-07-27T11:55:07.058Z,36.90
2018-07-27T11:57:35.417Z,37.00
2018-07-27T12:00:05.191Z,36.80
2018-07-27T12:02:34.985Z,36.70
2018-07-27T12:05:03.266Z,36.90
2018-07-27T12:07:31.777Z,37.60
2018-07-27T12:10:00.208Z,37.80
2018-07-27T12:12:28.924Z,37.10
2018-07-27T12:15:01.483Z,36.80
2018-07-27T12:17:29.521Z,36.10
2018-07-27T12:19:57.926Z,35.50
2018-07-27T12:22:27.179Z,35.30
2018-07-27T12:25:00.290Z,35.40
2018-07-27T12:27:28.574Z,35.50
2018-07-27T12:29:57.002Z,35.40
2018-07-27T12:32:27.203Z,35.10
2018-07-27T12:34:55.549Z,34.90
2018-07-27T12:37:23.836Z,35.40
2018-07-27T12:39:52.542Z,35.60
2018-07-27T12:42:23.745Z,36.00
2018-07-27T12:44:52.124Z,36.50
2018-07-27T12:47:20.647Z,37.00
2018-07-27T12:49:49.225Z,37.50
2018-07-27T12:52:19.577Z,38.00
2018-07-27T12:54:48.273Z,37.80
2018-07-27T12:57:16.528Z,37.60
2018-07-27T12:59:44.677Z,37.50
2018-07-27T13:04:42.121Z,37.70
2018-07-27T13:07:10.340Z,37.70
2018-07-27T13:09:38.623Z,37.90
2018-07-27T13:12:07.402Z,37.70
2018-07-27T13:17:04.089Z,37.60
2018-07-27T13:19:32.284Z,37.40
2018-07-27T13:22:01.021Z,37.60
2018-07-27T13:27:20.385Z,37.70
2018-07-27T13:29:48.610Z,37.90
2018-07-27T13:32:16.834Z,38.00
2018-07-27T13:37:16.651Z,38.30
2018-07-27T13:39:45.741Z,38.60
2018-07-27T13:42:15.237Z,38.90
2018-07-27T13:44:43.830Z,39.20
2018-07-27T13:47:12.410Z,39.40
2018-07-27T13:49:40.645Z,38.70
2018-07-27T13:52:08.807Z,38.30
2018-07-27T13:54:37.278Z,38.30
2018-07-27T13:57:05.417Z,38.40
2018-07-27T13:59:33.636Z,38.70
2018-07-27T14:02:01.854Z,39.20
2018-07-27T14:04:30.037Z,39.80
2018-07-27T14:06:59.354Z,40.00
2018-07-27T14:09:27.522Z,39.90
2018-07-27T14:11:55.674Z,39.80
2018-07-27T14:14:24.335Z,39.90
2018-07-27T14:16:52.429Z,41.00
2018-07-27T14:19:21.065Z,42.30
2018-07-27T14:21:49.270Z,43.40
2018-07-27T14:24:18.799Z,43.10
2018-07-27T14:26:46.958Z,42.30
2018-07-27T14:29:15.156Z,41.40
2018-07-27T14:31:43.416Z,41.60
2018-07-27T14:34:11.633Z,42.40
2018-07-27T14:36:39.865Z,43.40
2018-07-27T14:39:10.873Z,43.20
2018-07-27T14:41:39.109Z,42.40
2018-07-27T14:44:07.365Z,41.40
2018-07-27T14:46:36.387Z,41.50
2018-07-27T14:49:10.377Z,41.00
2018-07-27T14:51:38.869Z,40.70
2018-07-27T14:54:07.765Z,41.40
2018-07-27T14:56:36.539Z,42.10
2018-07-27T14:59:04.991Z,43.00
2018-07-27T15:01:33.185Z,43.30
2018-07-27T15:04:01.605Z,42.50
2018-07-27T15:06:29.830Z,42.80
2018-07-27T15:08:57.977Z,43.70
2018-07-27T15:11:26.393Z,44.60
2018-07-27T15:13:54.545Z,44.60
2018-07-27T15:16:22.878Z,44.30
2018-07-27T15:18:51.049Z,44.40
2018-07-27T15:21:19.253Z,44.30
2018-07-27T15:23:47.445Z,44.10
2018-07-27T16:23:25.844Z,34.50
2018-07-27T16:25:54.098Z,35.40
2018-07-27T16:28:22.266Z,35.90
2018-07-27T16:30:50.470Z,37.20
2018-07-27T16:33:18.651Z,37.90
2018-07-27T16:35:46.869Z,38.40
2018-07-27T16:38:15.079Z,38.80
2018-07-27T16:40:43.285Z,39.00
2018-07-27T16:43:11.548Z,38.90
2018-07-27T16:45:39.753Z,39.00
2018-07-27T16:48:07.967Z,38.90
2018-07-27T16:50:36.151Z,38.40
2018-07-27T16:53:04.399Z,37.80
2018-07-27T16:55:32.601Z,36.80
2018-07-27T16:58:00.842Z,35.80
2018-07-27T17:00:29.909Z,35.20
2018-07-27T17:02:58.069Z,34.60
2018-07-27T17:05:26.265Z,34.20
2018-07-27T17:07:54.516Z,33.90
2018-07-27T17:10:22.735Z,33.70
2018-07-27T17:12:50.974Z,33.60
2018-07-27T17:15:19.389Z,33.50
2018-07-27T17:17:48.191Z,33.40
2018-07-27T17:20:16.398Z,33.30
2018-07-27T17:22:44.657Z,33.30
2018-07-27T17:25:12.864Z,33.20
2018-07-27T17:27:41.011Z,33.30
2018-07-27T17:30:09.503Z,33.20
2018-07-27T17:32:38.155Z,33.00
2018-07-27T17:35:07.057Z,32.90
2018-07-27T17:37:35.936Z,32.80
2018-07-27T17:40:05.070Z,32.90
2018-07-27T17:42:33.436Z,33.00
2018-07-27T17:45:01.620Z,32.90
2018-07-27T17:47:29.875Z,32.80
2018-07-27T17:52:26.054Z,32.20
2018-07-27T17:54:54.782Z,32.00
2018-07-27T17:57:23.591Z,31.80
2018-07-27T17:59:51.998Z,31.70
2018-07-27T18:02:20.238Z,31.50
2018-07-27T18:07:23.523Z,31.20
2018-07-27T18:09:51.713Z,31.10
2018-07-27T18:12:19.882Z,30.90
2018-07-27T18:14:48.082Z,30.80
2018-07-27T18:17:16.305Z,30.60
2018-07-27T18:19:44.564Z,30.50
2018-07-27T18:22:12.779Z,30.30
2018-07-27T18:24:41.441Z,30.20
2018-07-27T18:27:09.686Z,30.00
2018-07-27T18:29:38.163Z,29.90
2018-07-27T18:32:06.427Z,29.80
2018-07-27T18:34:34.647Z,29.60
2018-07-27T18:37:02.910Z,29.50
2018-07-27T18:39:31.104Z,29.30
2018-07-27T18:41:59.538Z,29.30
2018-07-27T18:44:28.693Z,29.10
2018-07-27T18:46:57.433Z,28.90
2018-07-27T18:49:25.634Z,28.80
2018-07-27T18:51:53.914Z,28.70
2018-07-27T18:54:22.219Z,28.50
2018-07-27T18:56:50.373Z,28.30
2018-07-27T18:59:18.629Z,28.10
2018-07-27T19:01:46.943Z,27.90
2018-07-27T19:04:15.654Z,27.70
2018-07-27T19:06:43.867Z,27.60
2018-07-27T19:09:13.308Z,27.40
2018-07-27T19:11:41.577Z,27.20
2018-07-27T19:14:09.991Z,27.10
2018-07-27T19:16:38.210Z,26.90
2018-07-27T19:19:06.544Z,26.80
2018-07-27T19:21:34.753Z,26.70
2018-07-27T19:24:04.768Z,26.60
2018-07-27T19:26:32.923Z,26.40
2018-07-27T19:29:01.094Z,26.30
2018-07-27T19:31:29.313Z,26.20
2018-07-27T19:33:57.508Z,26.10
2018-07-27T19:36:25.697Z,26.00
2018-07-27T19:38:53.890Z,25.90
2018-07-27T19:41:22.769Z,25.80
2018-07-27T19:43:51.469Z,25.80
2018-07-27T19:46:19.660Z,26.00
2018-07-27T19:48:47.890Z,26.10
2018-07-27T19:51:16.098Z,26.10
2018-07-27T19:53:44.348Z,26.10
2018-07-27T19:56:12.546Z,26.10
2018-07-27T19:58:40.930Z,26.10
2018-07-27T20:01:09.123Z,26.10
2018-07-27T20:03:37.330Z,26.00
2018-07-27T20:06:05.674Z,25.90
2018-07-27T20:08:33.831Z,25.90
2018-07-27T20:11:02.510Z,25.80
2018-07-27T20:13:30.720Z,25.70
2018-07-27T20:15:59.291Z,25.60
2018-07-27T20:18:27.499Z,25.50
2018-07-27T20:20:55.755Z,25.40
2018-07-27T20:23:23.962Z,25.40
2018-07-27T20:25:52.129Z,25.30
2018-07-27T20:28:20.303Z,25.30
2018-07-27T20:30:48.542Z,25.10
2018-07-27T20:33:16.740Z,25.10
2018-07-27T20:35:44.951Z,25.10
2018-07-27T20:38:13.225Z,25.10
2018-07-27T20:40:41.450Z,25.20
2018-07-27T20:43:09.666Z,25.10
2018-07-27T20:45:38.138Z,25.10
2018-07-27T20:48:06.712Z,25.20
2018-07-27T20:50:35.220Z,25.20
2018-07-27T20:53:03.434Z,25.20
2018-07-27T20:55:31.724Z,25.20
2018-07-27T20:58:00.868Z,25.10
2018-07-27T21:00:29.053Z,25.00
2018-07-27T21:02:57.374Z,25.00
2018-07-27T21:05:25.517Z,25.00
2018-07-27T21:07:53.677Z,24.90
2018-07-27T21:10:21.882Z,24.80
2018-07-27T21:12:50.110Z,24.60
2018-07-27T21:15:18.625Z,24.40
2018-07-27T21:17:46.813Z,24.20
2018-07-27T21:20:16.072Z,24.10
2018-07-27T21:22:44.262Z,24.00
2018-07-27T21:25:12.470Z,24.00
2018-07-27T21:27:40.676Z,23.90
2018-07-27T21:30:08.882Z,23.90
2018-07-27T21:32:37.122Z,23.80
2018-07-27T21:35:05.434Z,23.70
2018-07-27T21:37:33.645Z,23.70
2018-07-27T21:40:02.074Z,23.70
2018-07-27T21:42:30.281Z,23.60
2018-07-27T21:44:58.484Z,23.50
2018-07-27T21:47:26.731Z,23.40
2018-07-27T21:49:55.488Z,23.30
2018-07-27T21:52:23.666Z,23.20
2018-07-27T21:54:51.819Z,23.00
2018-07-27T21:57:21.629Z,22.90
2018-07-27T21:59:49.803Z,22.60
2018-07-27T22:02:18.009Z,22.50
2018-07-27T22:04:46.174Z,22.40
2018-07-27T22:07:14.340Z,22.30
2018-07-27T22:09:42.509Z,22.20
2018-07-27T22:12:11.283Z,22.20
2018-07-27T22:14:39.476Z,22.20
2018-07-27T22:17:07.679Z,22.20
2018-07-27T22:19:36.169Z,22.10
2018-07-27T22:22:04.775Z,22.10
2018-07-27T22:24:32.964Z,22.00
2018-07-27T22:27:01.141Z,21.90
2018-07-27T22:29:29.547Z,21.90
2018-07-27T22:31:57.721Z,21.90
2018-07-27T22:34:25.932Z,21.90
2018-07-27T22:36:54.917Z,22.00
2018-07-27T22:39:23.116Z,22.30
2018-07-27T22:41:51.304Z,22.40
2018-07-27T22:44:19.475Z,22.50
2018-07-27T22:46:47.643Z,22.40
2018-07-27T22:49:15.872Z,22.30
2018-07-27T22:51:44.101Z,22.30
2018-07-27T22:54:12.989Z,22.40
2018-07-27T22:56:41.581Z,22.50
2018-07-27T22:59:10.389Z,22.50
2018-07-27T23:01:38.568Z,22.50
2018-07-27T23:04:07.265Z,22.70
2018-07-27T23:06:35.460Z,22.80
2018-07-27T23:09:05.678Z,22.80
2018-07-27T23:11:33.887Z,22.80
2018-07-27T23:14:03.131Z,22.70
2018-07-27T23:16:31.513Z,22.80
2018-07-27T23:18:59.678Z,22.70
2018-07-27T23:21:28.651Z,22.70
2018-07-27T23:23:56.878Z,22.60
2018-07-27T23:26:25.106Z,22.50
2018-07-27T23:28:53.297Z,22.50
2018-07-27T23:31:21.473Z,22.50
2018-07-27T23:33:49.696Z,22.50
2018-07-27T23:36:19.657Z,22.50
2018-07-27T23:38:47.818Z,22.50
2018-07-27T23:41:16.005Z,22.50
2018-07-27T23:43:44.262Z,22.40
2018-07-27T23:46:12.474Z,22.40
2018-07-27T23:51:09.036Z,22.00
2018-07-27T23:53:37.252Z,21.90
2018-07-27T23:56:05.438Z,21.80
2018-07-27T23:58:33.958Z,21.70
